Time;durP1;ratioP1;P1;durP2;ratioP2;P2;SDS_P1;SDS_P2;PMS_P1;PMS_P2;Temp;Humidity;BMP_temperature;BMP_pressure;BME280_temperature;BME280_humidity;BME280_pressure;Samples;Min_cycle;Max_cycle;Signal;HPM_P1;HPM_P2
2023/09/10 00:00:09;;;;;;;3.30;2.00;;;;;;;16.10;79.03;99985.81;109495;1286;22086;-58
2023/09/10 00:02:58;;;;;;;2.80;1.90;;;;;;;16.10;78.89;99981.62;109251;1286;100167;-59
2023/09/10 00:05:27;;;;;;;2.80;2.00;;;;;;;16.09;78.90;99978.86;109288;1285;23516;-58
2023/09/10 00:07:56;;;;;;;3.50;2.20;;;;;;;16.10;78.80;99976.16;109332;1286;22428;-58
2023/09/10 00:10:24;;;;;;;3.60;2.10;;;;;;;16.09;78.87;99977.06;109263;1286;100019;-58
2023/09/10 00:12:53;;;;;;;3.40;2.60;;;;;;;16.10;78.76;99977.40;109562;1275;22318;-58
2023/09/10 00:15:21;;;;;;;3.00;1.90;;;;;;;16.09;78.73;99977.66;109267;1283;99216;-58
2023/09/10 00:17:51;;;;;;;2.60;1.90;;;;;;;16.08;78.76;99977.36;109529;1286;22161;-58
2023/09/10 00:20:20;;;;;;;2.90;2.30;;;;;;;16.08;78.69;99973.34;109560;1285;22354;-59
2023/09/10 00:22:48;;;;;;;2.60;1.80;;;;;;;16.08;78.68;99974.20;109451;1284;99298;-58
2023/09/10 00:25:17;;;;;;;2.50;2.10;;;;;;;16.07;78.58;99973.16;109308;1283;22295;-58
2023/09/10 00:27:45;;;;;;;2.60;2.00;;;;;;;16.07;78.57;99973.39;109464;1285;99476;-58
2023/09/10 00:30:14;;;;;;;3.10;2.20;;;;;;;16.05;78.62;99970.16;109572;1286;22146;-58
2023/09/10 00:32:42;;;;;;;3.60;2.40;;;;;;;16.04;78.50;99967.98;109238;1286;104554;-58
2023/09/10 00:35:11;;;;;;;2.90;2.20;;;;;;;16.03;78.48;99969.08;109355;1286;22263;-58
2023/09/10 00:37:40;;;;;;;5.20;2.30;;;;;;;16.04;78.45;99964.98;109535;1284;22355;-58
2023/09/10 00:40:09;;;;;;;3.10;2.10;;;;;;;16.04;78.45;99966.39;109405;1285;99386;-58
2023/09/10 00:42:38;;;;;;;2.80;1.90;;;;;;;16.00;78.38;99963.83;109352;1286;22430;-58
2023/09/10 00:45:09;;;;;;;3.00;2.10;;;;;;;15.97;78.35;99963.73;109461;1291;100628;-58
2023/09/10 00:47:43;;;;;;;5.60;3.00;;;;;;;15.95;78.58;99963.65;109556;1286;22097;-58
2023/09/10 00:50:13;;;;;;;3.10;2.60;;;;;;;15.92;78.56;99963.48;109478;1285;22298;-58
2023/09/10 00:52:46;;;;;;;3.60;2.60;;;;;;;15.89;78.52;99958.41;109231;1285;100132;-58
2023/09/10 00:55:16;;;;;;;3.40;2.10;;;;;;;15.86;78.46;99956.29;109533;1286;22314;-58
2023/09/10 00:57:45;;;;;;;3.60;2.40;;;;;;;15.82;78.53;99954.98;109444;1284;100826;-58
2023/09/10 01:00:15;;;;;;;5.00;2.50;;;;;;;15.78;78.47;99958.61;109310;1285;22279;-58
2023/09/10 01:02:44;;;;;;;3.70;2.20;;;;;;;15.73;78.46;99957.19;109232;1283;100837;-58
2023/09/10 01:05:16;;;;;;;2.70;2.00;;;;;;;15.68;78.45;99959.24;109517;1284;22277;-58
2023/09/10 01:07:45;;;;;;;3.70;2.50;;;;;;;15.62;78.43;99956.97;109307;1286;22289;-58
2023/09/10 01:10:14;;;;;;;2.80;2.00;;;;;;;15.53;78.41;99954.22;109450;1285;100357;-58
2023/09/10 01:13:04;;;;;;;2.40;2.00;;;;;;;15.45;78.50;99958.39;109460;1280;22399;-58
2023/09/10 01:16:06;;;;;;;2.20;1.70;;;;;;;15.36;78.45;99952.99;109412;1286;101224;-58
2023/09/10 01:18:43;;;;;;;3.10;2.40;;;;;;;15.23;78.49;99953.81;109361;1285;22324;-58
2023/09/10 01:21:29;;;;;;;6.50;2.40;;;;;;;15.15;78.72;99953.45;109477;1284;100171;-58
2023/09/10 01:24:12;;;;;;;6.00;2.40;;;;;;;15.07;78.66;99952.73;109576;1286;23426;-58
2023/09/10 01:26:41;;;;;;;3.80;2.40;;;;;;;14.99;78.73;99949.35;109314;1283;99838;-58
2023/09/10 01:29:13;;;;;;;9.20;2.40;;;;;;;14.94;78.81;99951.58;109568;1289;22296;-58
2023/09/10 01:31:48;;;;;;;3.80;2.20;;;;;;;14.88;78.75;99953.16;109385;1283;22184;-58
2023/09/10 01:34:21;;;;;;;3.30;2.10;;;;;;;14.81;78.81;99951.48;109508;1283;99504;-58
2023/09/10 01:36:56;;;;;;;4.50;2.30;;;;;;;14.75;78.94;99951.36;109361;1291;22442;-58
2023/09/10 01:39:37;;;;;;;3.10;2.10;;;;;;;14.70;78.98;99951.33;109259;1283;100023;-58
2023/09/10 01:42:06;;;;;;;3.80;2.30;;;;;;;14.66;79.03;99951.08;109618;1283;22156;-58
2023/09/10 01:44:36;;;;;;;5.50;2.40;;;;;;;14.61;79.06;99952.42;109505;1283;99540;-58
2023/09/10 01:47:05;;;;;;;2.80;2.00;;;;;;;14.54;79.15;99954.52;109375;1282;22321;-58
2023/09/10 01:49:33;;;;;;;2.80;2.00;;;;;;;14.50;79.20;99957.01;109358;1283;22291;-58
2023/09/10 01:52:02;;;;;;;5.20;2.90;;;;;;;14.46;79.20;99957.10;109304;1286;100096;-58
2023/09/10 01:54:31;;;;;;;3.80;2.80;;;;;;;14.41;79.26;99957.20;109304;1283;22215;-58
2023/09/10 01:57:00;;;;;;;2.80;2.00;;;;;;;14.36;79.28;99950.52;109512;1287;100041;-58
2023/09/10 01:59:29;;;;;;;4.30;1.90;;;;;;;14.31;79.39;99944.48;109363;1284;22378;-58
2023/09/10 02:01:57;;;;;;;4.10;2.30;;;;;;;14.26;79.47;99943.92;109396;1289;22283;-58
2023/09/10 02:04:26;;;;;;;4.80;2.00;;;;;;;14.20;79.43;99942.90;109304;1284;99655;-59
2023/09/10 02:06:54;;;;;;;4.20;2.30;;;;;;;14.15;79.43;99943.23;109397;1285;22944;-58
2023/09/10 02:09:23;;;;;;;3.60;2.00;;;;;;;14.09;79.56;99937.36;109353;1283;100064;-58
2023/09/10 02:11:51;;;;;;;4.20;2.60;;;;;;;14.05;79.84;99933.03;109623;1284;22187;-59
2023/09/10 02:14:20;;;;;;;2.40;2.00;;;;;;;14.02;79.93;99933.05;109375;1285;22303;-58
2023/09/10 02:16:49;;;;;;;4.70;2.80;;;;;;;14.01;80.09;99930.52;109550;1286;99677;-58
2023/09/10 02:19:17;;;;;;;3.50;2.30;;;;;;;13.99;80.20;99925.91;109586;1284;22179;-58
2023/09/10 02:21:46;;;;;;;3.20;2.00;;;;;;;13.97;80.25;99928.13;109233;1288;99737;-58
2023/09/10 02:24:14;;;;;;;5.50;2.40;;;;;;;13.93;80.26;99927.11;109577;1279;22232;-58
2023/09/10 02:26:43;;;;;;;2.60;2.20;;;;;;;13.90;80.36;99925.41;109318;1285;99636;-58
2023/09/10 02:29:11;;;;;;;2.70;2.00;;;;;;;13.85;80.43;99927.39;109367;1286;22379;-58
2023/09/10 02:31:40;;;;;;;2.50;2.00;;;;;;;13.81;80.37;99928.00;109444;1284;24182;-58
2023/09/10 02:34:08;;;;;;;4.40;2.10;;;;;;;13.77;80.50;99927.90;109568;1288;99642;-58
2023/09/10 02:36:37;;;;;;;2.70;2.10;;;;;;;13.73;80.66;99924.61;109277;1284;23015;-58
2023/09/10 02:39:06;;;;;;;3.50;2.40;;;;;;;13.71;80.76;99927.39;109508;1283;100174;-58
2023/09/10 02:41:34;;;;;;;3.20;2.80;;;;;;;13.68;80.81;99924.87;109409;1283;22339;-58
2023/09/10 02:44:03;;;;;;;4.10;2.80;;;;;;;13.69;81.25;99927.29;109574;1286;22882;-58
2023/09/10 02:46:31;;;;;;;5.60;3.00;;;;;;;13.73;81.49;99922.14;109511;1283;99307;-58
2023/09/10 02:49:00;;;;;;;4.10;2.60;;;;;;;13.80;81.55;99922.48;109281;1282;22330;-58
2023/09/10 02:51:29;;;;;;;2.60;1.90;;;;;;;13.84;81.64;99921.89;109503;1283;99752;-58
2023/09/10 02:53:57;;;;;;;3.20;2.70;;;;;;;13.83;81.34;99915.62;109413;1285;22242;-58
2023/09/10 02:56:26;;;;;;;3.10;2.50;;;;;;;13.84;81.72;99916.98;109587;1280;22300;-58
2023/09/10 02:58:54;;;;;;;4.30;2.70;;;;;;;13.86;81.87;99918.41;109381;1286;99200;-58
2023/09/10 03:01:23;;;;;;;8.40;2.90;;;;;;;13.91;82.07;99918.48;109598;1276;22265;-58
2023/09/10 03:03:51;;;;;;;4.90;2.90;;;;;;;13.99;82.16;99920.48;109283;1282;100174;-58
2023/09/10 03:06:20;;;;;;;4.30;3.10;;;;;;;14.03;82.15;99920.73;109630;1285;22174;-58
2023/09/10 03:08:49;;;;;;;3.10;2.20;;;;;;;14.07;82.14;99921.02;109486;1287;99786;-58
2023/09/10 03:11:18;;;;;;;2.30;1.90;;;;;;;14.13;82.16;99923.52;109535;1286;22218;-58
2023/09/10 03:13:47;;;;;;;4.30;3.20;;;;;;;14.18;82.16;99921.85;109593;1283;22158;-59
2023/09/10 03:16:15;;;;;;;3.20;2.60;;;;;;;14.21;82.21;99921.10;109535;1284;99086;-59
2023/09/10 03:18:44;;;;;;;3.90;2.90;;;;;;;14.27;82.36;99922.70;109278;1288;22325;-58
2023/09/10 03:21:13;;;;;;;4.50;2.70;;;;;;;14.29;82.16;99926.75;109538;1285;100824;-58
2023/09/10 03:23:41;;;;;;;4.70;2.40;;;;;;;14.24;81.90;99921.65;109381;1283;22369;-59
2023/09/10 03:26:11;;;;;;;3.40;2.90;;;;;;;14.15;81.82;99923.21;109613;1286;22173;-58
2023/09/10 03:28:41;;;;;;;4.10;2.90;;;;;;;14.11;82.03;99925.75;109311;1283;101030;-58
2023/09/10 03:31:09;;;;;;;4.10;2.90;;;;;;;14.06;82.08;99924.08;109607;1283;23217;-58
2023/09/10 03:33:39;;;;;;;5.80;3.20;;;;;;;14.03;82.16;99923.40;109525;1286;101684;-58
2023/09/10 03:36:09;;;;;;;4.10;3.00;;;;;;;14.01;82.23;99920.89;109341;1284;22367;-58
2023/09/10 03:38:38;;;;;;;4.50;3.40;;;;;;;14.02;82.57;99917.49;109328;1286;99720;-58
2023/09/10 03:41:07;;;;;;;4.40;3.20;;;;;;;14.04;82.57;99918.61;109419;1291;22073;-58
2023/09/10 03:43:35;;;;;;;3.60;2.90;;;;;;;14.02;82.56;99918.34;109572;1284;22173;-58
2023/09/10 03:46:04;;;;;;;4.30;3.40;;;;;;;14.01;82.51;99913.89;109559;1286;98454;-58
2023/09/10 03:48:32;;;;;;;5.00;3.40;;;;;;;13.96;82.45;99912.23;109620;1286;22156;-58
2023/09/10 03:51:01;;;;;;;3.70;3.10;;;;;;;13.90;82.48;99911.70;109545;1286;99617;-58
2023/09/10 03:53:30;;;;;;;4.00;3.40;;;;;;;13.85;82.62;99904.27;109634;1284;22251;-58
2023/09/10 03:55:58;;;;;;;4.80;2.90;;;;;;;13.81;82.67;99904.87;109384;1284;22352;-58
2023/09/10 03:58:27;;;;;;;4.40;2.80;;;;;;;13.79;82.77;99902.73;109491;1291;99351;-58
2023/09/10 04:00:55;;;;;;;3.90;3.00;;;;;;;13.75;82.74;99900.85;109589;1284;22485;-58
2023/09/10 04:03:25;;;;;;;2.80;2.10;;;;;;;13.72;82.84;99899.66;109545;1290;100058;-58
2023/09/10 04:05:54;;;;;;;4.00;2.50;;;;;;;13.68;82.74;99894.96;109456;1286;22830;-58
2023/09/10 04:08:23;;;;;;;4.40;2.80;;;;;;;13.63;82.72;99895.58;109629;1283;22075;-58
2023/09/10 04:10:51;;;;;;;6.10;3.80;;;;;;;13.59;82.81;99898.60;109537;1287;99260;-59
2023/09/10 04:13:20;;;;;;;4.40;2.80;;;;;;;13.55;83.04;99897.79;109591;1284;22310;-58
2023/09/10 04:15:48;;;;;;;9.40;3.60;;;;;;;13.53;83.14;99899.81;109488;1286;100123;-58
2023/09/10 04:18:17;;;;;;;3.40;2.60;;;;;;;13.53;83.24;99896.85;109606;1286;23277;-58
2023/09/10 04:20:45;;;;;;;4.00;3.10;;;;;;;13.50;83.36;99898.60;109330;1284;100427;-58
2023/09/10 04:23:14;;;;;;;7.10;3.60;;;;;;;13.55;83.40;99897.08;109645;1289;22159;-58
2023/09/10 04:25:43;;;;;;;4.70;3.10;;;;;;;13.55;83.39;99896.72;109333;1289;22313;-58
2023/09/10 04:28:11;;;;;;;3.30;2.50;;;;;;;13.55;83.23;99897.98;109551;1286;100460;-58
2023/09/10 04:30:40;;;;;;;4.10;2.70;;;;;;;13.50;83.22;99898.77;109406;1289;22189;-58
2023/09/10 04:33:10;;;;;;;5.90;2.90;;;;;;;13.47;83.34;99902.48;109525;1284;99937;-58
2023/09/10 04:35:48;;;;;;;3.70;3.10;;;;;;;13.49;83.56;99902.70;109435;1284;22336;-58
2023/09/10 04:38:17;;;;;;;3.70;2.50;;;;;;;13.54;83.85;99902.77;109627;1283;22270;-58
2023/09/10 04:40:46;;;;;;;3.10;2.50;;;;;;;13.59;83.73;99901.93;109243;1287;99979;-58
2023/09/10 04:43:15;;;;;;;5.10;2.70;;;;;;;13.62;83.95;99900.04;109626;1291;22106;-56
2023/09/10 04:45:43;;;;;;;3.80;2.90;;;;;;;13.68;83.93;99895.34;109526;1291;99759;-56
2023/09/10 04:48:12;;;;;;;5.70;2.60;;;;;;;13.73;83.86;99895.92;109529;1288;22175;-56
2023/09/10 04:50:41;;;;;;;5.30;3.10;;;;;;;13.79;83.89;99895.23;109554;1284;99660;-56
2023/09/10 04:53:12;;;;;;;4.20;2.90;;;;;;;13.84;83.92;99894.08;109665;1285;22118;-56
2023/09/10 04:55:41;;;;;;;3.70;2.90;;;;;;;13.90;84.06;99894.73;109588;1287;22335;-56
2023/09/10 04:58:12;;;;;;;5.60;3.70;;;;;;;13.99;84.23;99897.89;109345;1291;99782;-56
2023/09/10 05:00:40;;;;;;;4.90;3.10;;;;;;;14.11;84.39;99897.58;109609;1291;22182;-58
2023/09/10 05:03:09;;;;;;;3.50;2.50;;;;;;;14.20;84.34;99900.21;109339;1286;100584;-57
2023/09/10 05:05:48;;;;;;;3.20;2.60;;;;;;;14.29;84.41;99904.91;109605;1291;22318;-58
2023/09/10 05:08:17;;;;;;;4.00;2.50;;;;;;;14.41;84.64;99900.66;109333;1291;22177;-57
2023/09/10 05:10:48;;;;;;;3.90;3.00;;;;;;;14.54;84.63;99899.52;109513;1289;99290;-58
2023/09/10 05:13:17;;;;;;;3.70;3.30;;;;;;;14.67;84.64;99901.23;109575;1286;23179;-58
2023/09/10 05:15:49;;;;;;;3.90;3.00;;;;;;;14.79;84.71;99902.73;109219;1276;100026;-58
2023/09/10 05:18:19;;;;;;;4.80;2.80;;;;;;;14.91;84.80;99900.27;109282;1291;22204;-57
2023/09/10 05:20:48;;;;;;;4.40;2.90;;;;;;;15.05;84.85;99899.23;109492;1285;101616;-58
2023/09/10 05:23:17;;;;;;;3.80;3.10;;;;;;;15.20;84.89;99895.98;109547;1284;23120;-58
2023/09/10 05:25:45;;;;;;;3.80;2.80;;;;;;;15.32;84.88;99895.71;109534;1284;27785;-57
2023/09/10 05:28:16;;;;;;;3.50;2.30;;;;;;;15.46;85.01;99893.27;109285;1286;99474;-58
2023/09/10 05:30:46;;;;;;;3.00;2.20;;;;;;;15.60;84.87;99890.79;109330;1286;22178;-58
2023/09/10 05:33:14;;;;;;;3.30;2.20;;;;;;;15.72;84.89;99887.90;109297;1283;100208;-58
2023/09/10 05:35:44;;;;;;;4.00;3.00;;;;;;;15.88;85.00;99886.70;109389;1286;22705;-58
2023/09/10 05:38:13;;;;;;;3.20;2.80;;;;;;;16.04;85.00;99891.58;109248;1284;22313;-58
2023/09/10 05:40:41;;;;;;;4.30;2.70;;;;;;;16.18;84.97;99883.92;109491;1284;100182;-59
2023/09/10 05:43:10;;;;;;;6.10;3.70;;;;;;;16.35;84.98;99883.50;109328;1286;23266;-58
2023/09/10 05:45:39;;;;;;;3.60;3.30;;;;;;;16.53;85.08;99883.32;109453;1286;100301;-57
2023/09/10 05:48:07;;;;;;;4.70;3.30;;;;;;;16.72;85.13;99886.20;109536;1286;23212;-58
2023/09/10 05:50:39;;;;;;;4.60;3.10;;;;;;;16.95;85.33;99887.61;109432;1283;99704;-58
2023/09/10 05:53:08;;;;;;;5.50;3.80;;;;;;;17.19;85.18;99884.45;109388;1286;22389;-56
2023/09/10 05:55:40;;;;;;;4.60;3.30;;;;;;;17.43;85.38;99883.23;109558;1283;22621;-56
2023/09/10 05:58:10;;;;;;;4.30;3.40;;;;;;;17.68;85.40;99882.09;109462;1283;99936;-55
2023/09/10 06:00:38;;;;;;;5.80;3.50;;;;;;;17.93;85.34;99878.88;109362;1279;22118;-58
2023/09/10 06:03:09;;;;;;;4.10;3.60;;;;;;;18.19;85.34;99880.82;109274;1283;100244;-58
2023/09/10 06:05:38;;;;;;;6.30;4.10;;;;;;;18.42;85.05;99877.05;109193;1285;281004;-58
2023/09/10 06:08:07;;;;;;;6.50;3.30;;;;;;;18.66;84.81;99880.34;109531;1285;22935;-58
2023/09/10 06:10:35;;;;;;;5.60;3.90;;;;;;;18.86;84.37;99876.46;109460;1283;99797;-59
2023/09/10 06:13:04;;;;;;;5.30;3.80;;;;;;;19.08;84.39;99877.42;109593;1284;22156;-59
2023/09/10 06:15:32;;;;;;;6.30;3.40;;;;;;;19.31;84.14;99876.25;109300;1284;100086;-59
2023/09/10 06:18:01;;;;;;;6.90;3.60;;;;;;;19.55;83.98;99875.48;109645;1285;23058;-59
2023/09/10 06:20:30;;;;;;;5.40;3.80;;;;;;;19.87;84.02;99871.69;109571;1283;22497;-59
2023/09/10 06:22:58;;;;;;;4.20;3.20;;;;;;;20.16;83.68;99872.72;109387;1286;22322;-59
2023/09/10 06:25:27;;;;;;;4.60;3.30;;;;;;;20.32;83.15;99871.01;109633;1284;22174;-59
2023/09/10 06:27:56;;;;;;;4.40;2.80;;;;;;;20.47;82.87;99868.37;109285;1284;99621;-59
2023/09/10 06:30:25;;;;;;;4.40;3.20;;;;;;;20.58;82.67;99866.73;109592;1285;23113;-60
2023/09/10 06:32:53;;;;;;;4.90;3.50;;;;;;;20.72;82.63;99865.64;109487;1285;100071;-59
2023/09/10 06:35:22;;;;;;;7.00;3.60;;;;;;;20.90;82.32;99867.13;109596;1286;22318;-59
2023/09/10 06:37:54;;;;;;;4.40;3.20;;;;;;;21.06;81.96;99862.67;109601;1283;22311;-59
2023/09/10 06:40:22;;;;;;;4.90;3.10;;;;;;;21.21;81.77;99864.15;109482;1283;99453;-59
2023/09/10 06:42:51;;;;;;;8.80;2.80;;;;;;;21.42;81.69;99866.23;109596;1283;22348;-59
2023/09/10 06:45:20;;;;;;;4.00;2.70;;;;;;;21.63;81.37;99867.80;109366;1286;99525;-59
2023/09/10 06:47:48;;;;;;;4.40;2.80;;;;;;;21.85;81.21;99867.60;109385;1286;22843;-59
2023/09/10 06:50:16;;;;;;;4.70;3.60;;;;;;;22.09;81.06;99867.38;109613;1285;22360;-59
2023/09/10 06:52:45;;;;;;;4.80;3.00;;;;;;;22.36;80.58;99867.83;109496;1286;98462;-57
2023/09/10 06:55:14;;;;;;;3.90;2.80;;;;;;;22.55;80.17;99867.60;109402;1283;22471;-57
2023/09/10 06:57:42;;;;;;;5.60;3.80;;;;;;;22.76;79.90;99869.92;109339;1287;99610;-57
2023/09/10 07:00:11;;;;;;;3.80;3.20;;;;;;;22.99;79.70;99873.75;109600;1285;22257;-57
2023/09/10 07:02:40;;;;;;;4.70;3.00;;;;;;;23.21;79.40;99870.67;109435;1286;99691;-56
2023/09/10 07:05:09;;;;;;;4.30;3.20;;;;;;;23.46;78.94;99877.46;109338;1284;22286;-56
2023/09/10 07:07:38;;;;;;;7.90;3.80;;;;;;;23.72;78.35;99881.46;109591;1284;23276;-56
2023/09/10 07:10:07;;;;;;;9.20;3.10;;;;;;;24.01;78.15;99876.49;109355;1284;100021;-61
2023/09/10 07:12:37;;;;;;;3.60;2.40;;;;;;;24.23;77.72;99877.42;109474;1280;22377;-63
2023/09/10 07:15:06;;;;;;;11.70;4.10;;;;;;;24.45;77.18;99877.58;109105;1284;100487;-58
2023/09/10 07:17:36;;;;;;;4.00;2.80;;;;;;;24.69;76.87;99873.55;109481;1285;23004;-54
2023/09/10 07:20:06;;;;;;;6.50;2.70;;;;;;;24.93;76.36;99872.88;109369;1284;22335;-59
2023/09/10 07:22:45;;;;;;;4.40;3.10;;;;;;;25.19;76.16;99875.55;109492;1285;99435;-58
2023/09/10 07:25:32;;;;;;;3.60;3.00;;;;;;;25.62;75.77;99876.11;109408;1284;22935;-57
2023/09/10 07:28:01;;;;;;;3.80;3.00;;;;;;;25.90;74.99;99871.69;109494;1287;100093;-55
2023/09/10 07:30:34;;;;;;;4.70;3.10;;;;;;;26.15;74.27;99872.30;109126;1289;22362;-58
2023/09/10 07:33:04;;;;;;;7.50;3.60;;;;;;;26.36;73.83;99872.02;109373;1283;101566;-57
2023/09/10 07:35:35;;;;;;;4.50;2.80;;;;;;;26.69;73.69;99871.43;109419;1283;23047;-57
2023/09/10 07:38:04;;;;;;;4.80;3.20;;;;;;;27.29;73.80;99872.52;109611;1286;22190;-58
2023/09/10 07:40:32;;;;;;;3.20;2.30;;;;;;;28.14;73.20;99870.58;109510;1283;99317;-58
2023/09/10 07:43:02;;;;;;;3.50;2.40;;;;;;;28.44;71.26;99868.82;109606;1283;22392;-55
2023/09/10 07:45:32;;;;;;;4.60;2.10;;;;;;;28.66;70.36;99869.35;109066;1283;100013;-61
2023/09/10 07:48:02;;;;;;;2.90;2.30;;;;;;;29.24;70.30;99866.29;109231;1289;22186;-56
2023/09/10 07:50:31;;;;;;;3.20;2.30;;;;;;;30.19;70.41;99864.16;109395;1285;22263;-58
2023/09/10 07:53:00;;;;;;;2.70;2.00;;;;;;;31.44;70.32;99860.18;109589;1283;22311;-59
2023/09/10 07:55:28;;;;;;;3.60;2.20;;;;;;;32.67;69.35;99860.69;109371;1286;22359;-61
2023/09/10 07:57:57;;;;;;;4.00;1.90;;;;;;;33.95;67.69;99855.47;109522;1286;100019;-61
2023/09/10 08:00:26;;;;;;;8.70;2.40;;;;;;;34.42;65.42;99849.49;109260;1283;22163;-60
2023/09/10 08:02:55;;;;;;;2.50;1.80;;;;;;;35.27;65.69;99853.70;109324;1286;100703;-60
2023/09/10 08:05:24;;;;;;;2.70;1.80;;;;;;;37.08;65.73;99854.02;109592;1284;22341;-60
2023/09/10 08:07:54;;;;;;;3.50;2.30;;;;;;;38.92;63.69;99853.39;109602;1284;22198;-60
2023/09/10 08:10:22;;;;;;;3.70;1.90;;;;;;;40.05;60.93;99851.79;109518;1283;99913;-59
2023/09/10 08:12:52;;;;;;;2.50;1.60;;;;;;;41.19;59.47;99853.77;109554;1286;23070;-59
2023/09/10 08:15:21;;;;;;;2.10;1.90;;;;;;;42.34;57.32;99848.03;109519;1284;99499;-58
2023/09/10 08:17:51;;;;;;;2.20;1.60;;;;;;;43.28;54.95;99848.79;109452;1284;22362;-59
2023/09/10 08:20:22;;;;;;;3.10;1.70;;;;;;;43.29;52.00;99850.17;109570;1286;23110;-59
2023/09/10 08:22:51;;;;;;;2.00;1.40;;;;;;;42.99;50.56;99843.05;109490;1289;100441;-59
2023/09/10 08:25:21;;;;;;;3.30;2.30;;;;;;;43.84;50.20;99846.06;109537;1285;22527;-59
2023/09/10 08:27:50;;;;;;;3.00;1.80;;;;;;;45.24;48.26;99849.31;109466;1282;101067;-59
2023/09/10 08:30:19;;;;;;;4.90;1.70;;;;;;;45.91;44.17;99848.08;109545;1283;22234;-57
2023/09/10 08:32:49;;;;;;;2.80;1.50;;;;;;;45.66;42.34;99847.91;109196;1289;100913;-59
2023/09/10 08:35:19;;;;;;;4.90;1.80;;;;;;;45.54;41.04;99847.73;109532;1284;22295;-58
2023/09/10 08:37:48;;;;;;;2.40;1.70;;;;;;;45.91;40.42;99845.42;109451;1286;22368;-59
2023/09/10 08:40:16;;;;;;;1.60;1.20;;;;;;;47.39;39.79;99840.02;109421;1283;99350;-55
2023/09/10 08:42:55;;;;;;;2.10;1.50;;;;;;;48.64;37.75;99844.63;109365;1286;22253;-57
2023/09/10 08:45:24;;;;;;;2.10;1.60;;;;;;;49.67;36.26;99840.28;109275;1285;100069;-63
2023/09/10 08:47:55;;;;;;;1.90;1.80;;;;;;;50.65;34.10;99835.77;109533;1284;22452;-64
2023/09/10 08:50:24;;;;;;;2.10;2.80;;;;;;;50.20;31.63;99832.86;109552;1284;22284;-61
2023/09/10 08:53:06;;;;;;;2.30;1.90;;;;;;;50.09;31.03;99830.48;109467;1284;99866;-56
2023/09/10 08:55:46;;;;;;;1.70;1.60;;;;;;;49.85;29.13;99826.70;109401;1279;22245;-59
2023/09/10 08:58:19;;;;;;;2.00;1.80;;;;;;;49.47;28.43;99823.89;109251;1284;100243;-57
2023/09/10 09:00:50;;;;;;;2.10;1.90;;;;;;;49.68;27.38;99826.79;109543;1284;22698;-58
2023/09/10 09:03:20;;;;;;;4.50;2.50;;;;;;;50.47;27.00;99826.69;109343;1286;99434;-55
2023/09/10 09:05:52;;;;;;;2.60;2.30;;;;;;;52.28;26.60;99824.45;109595;1286;22161;-56
2023/09/10 09:08:28;;;;;;;2.50;2.30;;;;;;;53.85;25.71;99824.76;109615;1284;22058;-56
2023/09/10 09:11:01;;;;;;;3.10;2.80;;;;;;;54.76;24.21;99820.11;109365;1283;99069;-59
2023/09/10 09:13:42;;;;;;;3.90;3.60;;;;;;;55.14;23.51;99817.27;109313;1289;22352;-56
2023/09/10 09:16:12;;;;;;;3.80;3.50;;;;;;;56.05;22.74;99817.04;109328;1284;99344;-59
2023/09/10 09:18:41;;;;;;;4.00;3.70;;;;;;;56.48;21.55;99816.40;109393;1283;22274;-58
2023/09/10 09:21:18;;;;;;;4.80;4.40;;;;;;;56.73;20.47;99816.95;109492;1284;99564;-58
2023/09/10 09:24:01;;;;;;;5.30;4.90;;;;;;;56.88;19.41;99817.07;109402;1283;22990;-58
2023/09/10 09:26:30;;;;;;;5.00;4.60;;;;;;;57.40;18.83;99817.00;109437;1283;22297;-58
2023/09/10 09:29:02;;;;;;;6.60;6.20;;;;;;;57.77;18.15;99817.19;109607;1285;22192;-58
2023/09/10 09:31:32;;;;;;;6.40;6.00;;;;;;;58.07;17.76;99820.54;109619;1283;22578;-58
2023/09/10 09:34:01;;;;;;;7.40;7.00;;;;;;;58.36;17.03;99815.73;109298;1283;101083;-58
2023/09/10 09:36:36;;;;;;;9.00;8.40;;;;;;;58.75;16.76;99813.45;109404;1283;22939;-58
2023/09/10 09:39:07;;;;;;;8.20;7.80;;;;;;;59.41;16.45;99811.27;109339;1283;99547;-57
2023/09/10 09:41:36;;;;;;;10.80;9.90;;;;;;;59.63;15.47;99808.64;109576;1285;22125;-58
2023/09/10 09:44:12;;;;;;;10.70;10.10;;;;;;;59.04;15.04;99805.25;109391;1283;23001;-58
2023/09/10 09:46:47;;;;;;;11.80;11.10;;;;;;;59.09;14.59;99807.36;109380;1285;101444;-58
2023/09/10 09:49:17;;;;;;;11.20;10.60;;;;;;;58.36;14.08;99804.27;109583;1282;22326;-58
2023/09/10 09:51:46;;;;;;;12.20;11.50;;;;;;;58.26;14.28;99801.55;109473;1283;99984;-59
2023/09/10 09:54:14;;;;;;;12.90;12.20;;;;;;;58.77;14.05;99803.79;109551;1283;22163;-59
2023/09/10 09:56:43;;;;;;;14.60;13.80;;;;;;;59.07;13.67;99797.95;109531;1283;100636;-58
2023/09/10 09:59:15;;;;;;;15.60;14.80;;;;;;;58.98;13.45;99796.14;109382;1283;22300;-58
2023/09/10 10:01:44;;;;;;;16.90;16.00;;;;;;;59.14;13.26;99791.68;109526;1283;22246;-46
2023/09/10 10:04:15;;;;;;;16.50;15.40;;;;;;;58.63;12.75;99789.59;109515;1283;101513;-60
2023/09/10 10:06:44;;;;;;;18.60;17.50;;;;;;;57.60;12.46;99782.90;109279;1282;22195;-56
2023/09/10 10:09:19;;;;;;;17.20;16.20;;;;;;;57.00;12.62;99783.77;109478;1283;101381;-59
2023/09/10 10:11:48;;;;;;;18.90;17.90;;;;;;;57.66;12.65;99780.51;109418;1283;22191;-60
2023/09/10 10:14:19;;;;;;;18.50;17.50;;;;;;;58.28;12.55;99787.17;109406;1283;22176;-57
2023/09/10 10:16:48;;;;;;;19.70;18.00;;;;;;;58.62;12.54;99789.44;109466;1286;100042;-59
2023/09/10 10:19:19;;;;;;;19.70;18.60;;;;;;;59.16;12.38;99785.10;109606;1285;22327;-58
2023/09/10 10:21:52;;;;;;;21.20;20.00;;;;;;;59.65;12.68;99786.10;109371;1286;99738;-58
2023/09/10 10:24:22;;;;;;;21.90;20.60;;;;;;;59.90;12.24;99789.95;109425;1286;22319;-49
2023/09/10 10:26:54;;;;;;;23.80;22.60;;;;;;;59.91;11.89;99789.94;109322;1283;100203;-56
2023/09/10 10:29:23;;;;;;;26.10;24.70;;;;;;;59.80;12.03;99783.98;109633;1285;22665;-58
2023/09/10 10:32:01;;;;;;;29.30;27.40;;;;;;;60.42;12.18;99786.73;109542;1285;22864;-58
2023/09/10 10:34:39;;;;;;;29.00;27.40;;;;;;;61.12;11.83;99781.63;109178;1286;100921;-57
2023/09/10 10:37:30;;;;;;;29.60;27.80;;;;;;;61.18;11.43;99783.27;109328;1284;22436;-57
2023/09/10 10:40:11;;;;;;;31.60;29.90;;;;;;;60.77;11.25;99781.25;109487;1280;99870;-57
2023/09/10 10:42:47;;;;;;;35.20;33.30;;;;;;;59.63;11.30;99776.59;109396;1285;22126;-57
2023/09/10 10:45:17;;;;;;;34.50;32.60;;;;;;;59.80;11.11;99774.00;109483;1279;99879;-58
2023/09/10 10:47:48;;;;;;;35.30;33.40;;;;;;;60.67;11.24;99771.33;109416;1286;22042;-57
2023/09/10 10:50:25;;;;;;;40.50;38.20;;;;;;;61.27;11.14;99776.52;109391;1284;22292;-58
2023/09/10 10:53:06;;;;;;;38.80;36.70;;;;;;;61.91;10.96;99778.45;109371;1284;99584;-57
2023/09/10 10:55:38;;;;;;;44.00;41.60;;;;;;;61.40;10.56;99774.70;109385;1286;22141;-60
2023/09/10 10:58:07;;;;;;;44.20;41.70;;;;;;;60.69;10.48;99767.11;109175;1280;100061;-60
2023/09/10 11:00:35;;;;;;;45.70;42.70;;;;;;;60.61;10.64;99767.16;109523;1286;22260;-59
2023/09/10 11:03:14;;;;;;;46.90;44.20;;;;;;;60.82;10.59;99764.79;109453;1283;102005;-60
2023/09/10 11:06:09;;;;;;;50.10;47.40;;;;;;;61.55;10.60;99765.31;109419;1283;22926;-60
2023/09/10 11:08:40;;;;;;;52.70;49.70;;;;;;;61.75;10.13;99771.17;109470;1284;100178;-59
2023/09/10 11:11:49;;;;;;;53.30;50.30;;;;;;;60.00;9.68;99760.58;109375;1284;21964;-60
2023/09/10 11:14:18;;;;;;;52.20;49.40;;;;;;;59.85;9.93;99760.07;108838;1291;22203;-57
2023/09/10 11:16:47;;;;;;;53.80;50.90;;;;;;;60.37;10.37;99756.30;108581;1292;100320;-60
2023/09/10 11:19:47;;;;;;;55.00;51.80;;;;;;;60.82;10.13;99751.33;108824;1287;23040;-59
2023/09/10 11:22:16;;;;;;;58.80;55.60;;;;;;;61.57;10.14;99755.43;108468;1290;100181;-60
2023/09/10 11:25:04;;;;;;;57.60;54.40;;;;;;;61.35;9.39;99753.23;108558;1294;22977;-59
2023/09/10 11:27:34;;;;;;;59.70;56.40;;;;;;;60.35;9.74;99748.26;108606;1289;99178;-58
2023/09/10 11:30:11;;;;;;;62.70;59.20;;;;;;;61.15;9.60;99751.52;108672;1292;23140;-59
2023/09/10 11:32:43;;;;;;;66.90;63.20;;;;;;;60.55;9.40;99745.36;108798;1289;99583;-58
2023/09/10 11:35:18;;;;;;;65.00;61.40;;;;;;;59.99;9.66;99747.09;108766;1292;22213;-59
2023/09/10 11:37:50;;;;;;;66.70;63.10;;;;;;;60.25;9.40;99748.70;108836;1292;22217;-60